sensor_id;sensor_type;location;lat;lon;timestamp;P1;durP1;ratioP1;P2;durP2;ratioP2
12550;SDS011;6341;51.434;6.792;2022-07-18T00:05:22;2.77;;;1.30;;
12550;SDS011;6341;51.434;6.792;2022-07-18T00:10:47;2.30;;;1.43;;
12550;SDS011;6341;51.434;6.792;2022-07-18T00:16:11;2.57;;;1.30;;
12550;SDS011;6341;51.434;6.792;2022-07-18T00:21:36;1.77;;;1.27;;
12550;SDS011;6341;51.434;6.792;2022-07-18T00:27:03;2.43;;;1.57;;
12550;SDS011;6341;51.434;6.792;2022-07-18T00:32:30;2.33;;;1.40;;
12550;SDS011;6341;51.434;6.792;2022-07-18T00:37:54;5.27;;;1.20;;
12550;SDS011;6341;51.434;6.792;2022-07-18T00:43:22;3.93;;;1.23;;
12550;SDS011;6341;51.434;6.792;2022-07-18T00:48:45;4.03;;;1.33;;
12550;SDS011;6341;51.434;6.792;2022-07-18T00:54:09;2.23;;;1.20;;
12550;SDS011;6341;51.434;6.792;2022-07-18T00:59:35;4.07;;;1.27;;
12550;SDS011;6341;51.434;6.792;2022-07-18T01:05:16;4.70;;;1.27;;
12550;SDS011;6341;51.434;6.792;2022-07-18T01:10:45;3.27;;;1.40;;
12550;SDS011;6341;51.434;6.792;2022-07-18T01:16:11;2.83;;;1.27;;
12550;SDS011;6341;51.434;6.792;2022-07-18T01:21:39;2.07;;;1.20;;
12550;SDS011;6341;51.434;6.792;2022-07-18T01:27:02;2.90;;;1.40;;
12550;SDS011;6341;51.434;6.792;2022-07-18T01:32:28;2.67;;;1.40;;
12550;SDS011;6341;51.434;6.792;2022-07-18T01:37:53;2.07;;;1.33;;
12550;SDS011;6341;51.434;6.792;2022-07-18T01:43:19;5.03;;;1.60;;
12550;SDS011;6341;51.434;6.792;2022-07-18T01:48:42;4.37;;;1.60;;
12550;SDS011;6341;51.434;6.792;2022-07-18T01:54:07;5.10;;;2.07;;
12550;SDS011;6341;51.434;6.792;2022-07-18T01:59:30;4.93;;;1.50;;
12550;SDS011;6341;51.434;6.792;2022-07-18T02:04:54;3.83;;;1.37;;
12550;SDS011;6341;51.434;6.792;2022-07-18T02:10:26;3.83;;;1.70;;
12550;SDS011;6341;51.434;6.792;2022-07-18T02:15:52;3.63;;;1.50;;
12550;SDS011;6341;51.434;6.792;2022-07-18T02:21:18;3.23;;;1.60;;
12550;SDS011;6341;51.434;6.792;2022-07-18T02:26:45;2.93;;;1.70;;
12550;SDS011;6341;51.434;6.792;2022-07-18T02:32:08;3.63;;;1.80;;
12550;SDS011;6341;51.434;6.792;2022-07-18T02:37:32;4.77;;;1.60;;
12550;SDS011;6341;51.434;6.792;2022-07-18T02:42:57;4.33;;;1.40;;
12550;SDS011;6341;51.434;6.792;2022-07-18T02:48:23;4.00;;;1.70;;
12550;SDS011;6341;51.434;6.792;2022-07-18T02:53:48;4.87;;;1.50;;
12550;SDS011;6341;51.434;6.792;2022-07-18T02:59:16;2.90;;;1.43;;
12550;SDS011;6341;51.434;6.792;2022-07-18T03:04:40;5.93;;;1.60;;
12550;SDS011;6341;51.434;6.792;2022-07-18T03:10:03;5.63;;;1.50;;
12550;SDS011;6341;51.434;6.792;2022-07-18T03:15:30;3.80;;;2.10;;
12550;SDS011;6341;51.434;6.792;2022-07-18T03:20:54;3.63;;;1.70;;
12550;SDS011;6341;51.434;6.792;2022-07-18T03:26:19;2.10;;;1.30;;
12550;SDS011;6341;51.434;6.792;2022-07-18T03:31:44;2.60;;;1.67;;
12550;SDS011;6341;51.434;6.792;2022-07-18T03:37:09;4.20;;;1.57;;
12550;SDS011;6341;51.434;6.792;2022-07-18T03:42:32;2.07;;;1.30;;
12550;SDS011;6341;51.434;6.792;2022-07-18T03:48:00;3.00;;;1.20;;
12550;SDS011;6341;51.434;6.792;2022-07-18T03:53:23;3.90;;;1.60;;
12550;SDS011;6341;51.434;6.792;2022-07-18T03:58:47;3.43;;;1.60;;
12550;SDS011;6341;51.434;6.792;2022-07-18T04:04:15;6.80;;;1.90;;
12550;SDS011;6341;51.434;6.792;2022-07-18T04:09:39;5.63;;;1.73;;
12550;SDS011;6341;51.434;6.792;2022-07-18T04:15:04;5.67;;;2.27;;
12550;SDS011;6341;51.434;6.792;2022-07-18T04:20:30;4.93;;;1.73;;
12550;SDS011;6341;51.434;6.792;2022-07-18T04:25:54;1.60;;;1.30;;
12550;SDS011;6341;51.434;6.792;2022-07-18T04:31:18;4.77;;;1.60;;
12550;SDS011;6341;51.434;6.792;2022-07-18T04:36:46;6.60;;;2.23;;
12550;SDS011;6341;51.434;6.792;2022-07-18T04:42:10;2.73;;;1.63;;
12550;SDS011;6341;51.434;6.792;2022-07-18T04:47:33;4.10;;;1.50;;
12550;SDS011;6341;51.434;6.792;2022-07-18T04:52:59;4.67;;;1.80;;
12550;SDS011;6341;51.434;6.792;2022-07-18T04:58:23;3.07;;;1.87;;
12550;SDS011;6341;51.434;6.792;2022-07-18T05:03:46;3.67;;;1.50;;
12550;SDS011;6341;51.434;6.792;2022-07-18T05:09:11;4.63;;;1.60;;
12550;SDS011;6341;51.434;6.792;2022-07-18T05:14:35;3.43;;;2.00;;
12550;SDS011;6341;51.434;6.792;2022-07-18T05:20:07;7.40;;;2.00;;
12550;SDS011;6341;51.434;6.792;2022-07-18T05:25:34;3.20;;;1.77;;
12550;SDS011;6341;51.434;6.792;2022-07-18T05:30:58;5.90;;;1.73;;
12550;SDS011;6341;51.434;6.792;2022-07-18T05:36:21;3.57;;;1.70;;
12550;SDS011;6341;51.434;6.792;2022-07-18T05:41:46;4.23;;;1.77;;
12550;SDS011;6341;51.434;6.792;2022-07-18T05:47:10;2.57;;;1.40;;
12550;SDS011;6341;51.434;6.792;2022-07-18T05:52:36;3.77;;;1.57;;
12550;SDS011;6341;51.434;6.792;2022-07-18T05:58:02;7.47;;;1.73;;
12550;SDS011;6341;51.434;6.792;2022-07-18T06:03:25;3.83;;;1.57;;
12550;SDS011;6341;51.434;6.792;2022-07-18T06:08:49;4.17;;;1.50;;
12550;SDS011;6341;51.434;6.792;2022-07-18T06:14:15;2.60;;;1.50;;
12550;SDS011;6341;51.434;6.792;2022-07-18T06:19:39;3.87;;;1.30;;
12550;SDS011;6341;51.434;6.792;2022-07-18T06:25:03;5.17;;;1.90;;
12550;SDS011;6341;51.434;6.792;2022-07-18T06:30:30;3.63;;;1.67;;
12550;SDS011;6341;51.434;6.792;2022-07-18T06:35:54;2.57;;;1.47;;
12550;SDS011;6341;51.434;6.792;2022-07-18T06:41:19;3.10;;;1.37;;
12550;SDS011;6341;51.434;6.792;2022-07-18T06:46:44;9.70;;;2.20;;
12550;SDS011;6341;51.434;6.792;2022-07-18T06:52:08;4.87;;;1.40;;
12550;SDS011;6341;51.434;6.792;2022-07-18T06:57:33;3.53;;;1.50;;
12550;SDS011;6341;51.434;6.792;2022-07-18T07:02:58;2.22;;;1.42;;
12550;SDS011;6341;51.434;6.792;2022-07-18T07:08:29;5.23;;;1.70;;
12550;SDS011;6341;51.434;6.792;2022-07-18T07:13:52;2.50;;;1.30;;
12550;SDS011;6341;51.434;6.792;2022-07-18T07:19:17;8.48;;;1.50;;
12550;SDS011;6341;51.434;6.792;2022-07-18T07:24:41;3.83;;;1.70;;
12550;SDS011;6341;51.434;6.792;2022-07-18T07:30:04;3.63;;;1.33;;
12550;SDS011;6341;51.434;6.792;2022-07-18T07:35:30;3.55;;;1.27;;
12550;SDS011;6341;51.434;6.792;2022-07-18T07:40:54;4.15;;;1.40;;
12550;SDS011;6341;51.434;6.792;2022-07-18T07:46:17;5.25;;;1.20;;
12550;SDS011;6341;51.434;6.792;2022-07-18T07:51:43;4.32;;;1.33;;
12550;SDS011;6341;51.434;6.792;2022-07-18T07:57:06;2.47;;;1.30;;
12550;SDS011;6341;51.434;6.792;2022-07-18T08:34:34;2.83;;;1.40;;
12550;SDS011;6341;51.434;6.792;2022-07-18T08:40:07;3.08;;;1.38;;
12550;SDS011;6341;51.434;6.792;2022-07-18T08:45:46;2.28;;;1.20;;
12550;SDS011;6341;51.434;6.792;2022-07-18T08:51:27;3.55;;;1.63;;
12550;SDS011;6341;51.434;6.792;2022-07-18T08:57:00;3.75;;;1.35;;
12550;SDS011;6341;51.434;6.792;2022-07-18T09:02:47;4.80;;;1.30;;
12550;SDS011;6341;51.434;6.792;2022-07-18T09:08:29;8.13;;;1.42;;
12550;SDS011;6341;51.434;6.792;2022-07-18T09:13:59;2.47;;;1.50;;
12550;SDS011;6341;51.434;6.792;2022-07-18T09:20:03;3.50;;;1.40;;
12550;SDS011;6341;51.434;6.792;2022-07-18T09:25:45;4.47;;;1.35;;
12550;SDS011;6341;51.434;6.792;2022-07-18T09:31:26;4.47;;;1.77;;
12550;SDS011;6341;51.434;6.792;2022-07-18T09:36:56;4.88;;;1.73;;
12550;SDS011;6341;51.434;6.792;2022-07-18T09:42:31;3.65;;;1.55;;
12550;SDS011;6341;51.434;6.792;2022-07-18T09:48:01;4.63;;;1.60;;
12550;SDS011;6341;51.434;6.792;2022-07-18T09:53:45;5.38;;;1.63;;
12550;SDS011;6341;51.434;6.792;2022-07-18T09:59:28;7.00;;;1.88;;
12550;SDS011;6341;51.434;6.792;2022-07-18T10:04:55;4.32;;;2.03;;
12550;SDS011;6341;51.434;6.792;2022-07-18T10:10:18;2.67;;;1.63;;
12550;SDS011;6341;51.434;6.792;2022-07-18T10:15:44;8.55;;;2.38;;
12550;SDS011;6341;51.434;6.792;2022-07-18T10:21:09;5.07;;;2.30;;
12550;SDS011;6341;51.434;6.792;2022-07-18T10:26:34;2.53;;;2.05;;
12550;SDS011;6341;51.434;6.792;2022-07-18T10:32:04;5.60;;;2.35;;
12550;SDS011;6341;51.434;6.792;2022-07-18T10:37:31;5.88;;;2.60;;
12550;SDS011;6341;51.434;6.792;2022-07-18T10:48:57;5.75;;;2.85;;
12550;SDS011;6341;51.434;6.792;2022-07-18T10:54:21;4.53;;;2.50;;
12550;SDS011;6341;51.434;6.792;2022-07-18T11:05:34;6.25;;;2.08;;
12550;SDS011;6341;51.434;6.792;2022-07-18T11:11:05;5.03;;;2.63;;
12550;SDS011;6341;51.434;6.792;2022-07-18T11:16:36;9.30;;;3.67;;
12550;SDS011;6341;51.434;6.792;2022-07-18T11:22:21;4.72;;;2.90;;
12550;SDS011;6341;51.434;6.792;2022-07-18T11:27:46;3.97;;;2.63;;
12550;SDS011;6341;51.434;6.792;2022-07-18T11:33:22;4.75;;;2.20;;
12550;SDS011;6341;51.434;6.792;2022-07-18T11:38:54;3.90;;;1.90;;
12550;SDS011;6341;51.434;6.792;2022-07-18T11:44:20;5.32;;;2.58;;
12550;SDS011;6341;51.434;6.792;2022-07-18T11:49:53;4.32;;;2.08;;
12550;SDS011;6341;51.434;6.792;2022-07-18T11:55:18;4.22;;;2.28;;
12550;SDS011;6341;51.434;6.792;2022-07-18T12:00:58;6.80;;;2.70;;
12550;SDS011;6341;51.434;6.792;2022-07-18T12:06:22;5.50;;;2.35;;
12550;SDS011;6341;51.434;6.792;2022-07-18T12:11:47;4.40;;;1.90;;
12550;SDS011;6341;51.434;6.792;2022-07-18T12:17:31;4.05;;;1.88;;
12550;SDS011;6341;51.434;6.792;2022-07-18T12:23:07;4.75;;;2.05;;
12550;SDS011;6341;51.434;6.792;2022-07-18T12:28:34;3.40;;;2.33;;
12550;SDS011;6341;51.434;6.792;2022-07-18T12:34:07;5.15;;;2.67;;
12550;SDS011;6341;51.434;6.792;2022-07-18T12:39:32;6.03;;;3.22;;
12550;SDS011;6341;51.434;6.792;2022-07-18T12:44:58;7.07;;;2.78;;
12550;SDS011;6341;51.434;6.792;2022-07-18T12:50:21;7.60;;;3.00;;
12550;SDS011;6341;51.434;6.792;2022-07-18T12:55:46;7.75;;;2.50;;
12550;SDS011;6341;51.434;6.792;2022-07-18T13:01:12;6.00;;;2.63;;
12550;SDS011;6341;51.434;6.792;2022-07-18T13:06:36;4.35;;;2.10;;
12550;SDS011;6341;51.434;6.792;2022-07-18T13:12:00;5.57;;;2.10;;
12550;SDS011;6341;51.434;6.792;2022-07-18T13:17:25;2.20;;;1.55;;
12550;SDS011;6341;51.434;6.792;2022-07-18T13:22:52;4.57;;;1.42;;
12550;SDS011;6341;51.434;6.792;2022-07-18T13:28:16;7.00;;;1.50;;
12550;SDS011;6341;51.434;6.792;2022-07-18T13:33:42;5.72;;;1.63;;
12550;SDS011;6341;51.434;6.792;2022-07-18T13:39:08;5.70;;;2.08;;
12550;SDS011;6341;51.434;6.792;2022-07-18T13:44:31;4.97;;;2.00;;
12550;SDS011;6341;51.434;6.792;2022-07-18T13:49:56;9.50;;;1.90;;
12550;SDS011;6341;51.434;6.792;2022-07-18T13:55:19;6.95;;;2.08;;
12550;SDS011;6341;51.434;6.792;2022-07-18T14:00:43;8.60;;;2.00;;
12550;SDS011;6341;51.434;6.792;2022-07-18T14:06:08;6.07;;;2.20;;
12550;SDS011;6341;51.434;6.792;2022-07-18T14:11:32;3.67;;;1.95;;
12550;SDS011;6341;51.434;6.792;2022-07-18T14:16:56;3.28;;;1.85;;
12550;SDS011;6341;51.434;6.792;2022-07-18T14:22:20;3.75;;;2.20;;
12550;SDS011;6341;51.434;6.792;2022-07-18T14:27:44;5.80;;;2.42;;
12550;SDS011;6341;51.434;6.792;2022-07-18T14:33:08;7.35;;;2.38;;
12550;SDS011;6341;51.434;6.792;2022-07-18T14:38:37;7.53;;;1.98;;
12550;SDS011;6341;51.434;6.792;2022-07-18T14:44:00;5.93;;;2.50;;
12550;SDS011;6341;51.434;6.792;2022-07-18T14:49:25;5.60;;;2.22;;
12550;SDS011;6341;51.434;6.792;2022-07-18T14:54:52;4.68;;;1.80;;
12550;SDS011;6341;51.434;6.792;2022-07-18T15:00:16;6.43;;;1.83;;
12550;SDS011;6341;51.434;6.792;2022-07-18T15:05:39;5.13;;;1.60;;
12550;SDS011;6341;51.434;6.792;2022-07-18T15:11:05;2.97;;;1.67;;
12550;SDS011;6341;51.434;6.792;2022-07-18T15:16:29;2.60;;;2.00;;
12550;SDS011;6341;51.434;6.792;2022-07-18T15:21:53;3.55;;;1.88;;
12550;SDS011;6341;51.434;6.792;2022-07-18T15:27:18;4.93;;;1.88;;
12550;SDS011;6341;51.434;6.792;2022-07-18T15:32:43;3.28;;;1.63;;
12550;SDS011;6341;51.434;6.792;2022-07-18T15:38:07;3.65;;;1.73;;
12550;SDS011;6341;51.434;6.792;2022-07-18T15:43:32;3.25;;;1.60;;
12550;SDS011;6341;51.434;6.792;2022-07-18T15:48:55;2.50;;;1.42;;
12550;SDS011;6341;51.434;6.792;2022-07-18T15:54:19;2.30;;;1.45;;
12550;SDS011;6341;51.434;6.792;2022-07-18T15:59:45;5.45;;;1.95;;
12550;SDS011;6341;51.434;6.792;2022-07-18T16:05:08;3.58;;;2.00;;
12550;SDS011;6341;51.434;6.792;2022-07-18T16:10:32;3.17;;;1.63;;
12550;SDS011;6341;51.434;6.792;2022-07-18T16:15:57;6.88;;;2.50;;
12550;SDS011;6341;51.434;6.792;2022-07-18T16:21:21;3.72;;;1.75;;
12550;SDS011;6341;51.434;6.792;2022-07-18T16:26:44;5.07;;;1.65;;
12550;SDS011;6341;51.434;6.792;2022-07-18T16:32:09;3.45;;;1.80;;
12550;SDS011;6341;51.434;6.792;2022-07-18T16:37:33;4.20;;;1.88;;
12550;SDS011;6341;51.434;6.792;2022-07-18T16:42:56;4.43;;;1.95;;
12550;SDS011;6341;51.434;6.792;2022-07-18T16:48:21;3.10;;;1.77;;
12550;SDS011;6341;51.434;6.792;2022-07-18T16:53:45;6.53;;;1.95;;
12550;SDS011;6341;51.434;6.792;2022-07-18T16:59:16;4.10;;;1.70;;
12550;SDS011;6341;51.434;6.792;2022-07-18T17:04:41;3.67;;;1.63;;
12550;SDS011;6341;51.434;6.792;2022-07-18T17:10:05;5.13;;;1.50;;
12550;SDS011;6341;51.434;6.792;2022-07-18T17:15:30;2.83;;;1.40;;
12550;SDS011;6341;51.434;6.792;2022-07-18T17:20:58;5.30;;;1.40;;
12550;SDS011;6341;51.434;6.792;2022-07-18T17:26:33;4.13;;;1.50;;
12550;SDS011;6341;51.434;6.792;2022-07-18T17:31:56;2.17;;;1.60;;
12550;SDS011;6341;51.434;6.792;2022-07-18T17:37:22;8.70;;;1.85;;
12550;SDS011;6341;51.434;6.792;2022-07-18T17:42:46;2.92;;;1.75;;
12550;SDS011;6341;51.434;6.792;2022-07-18T17:48:11;2.30;;;1.60;;
12550;SDS011;6341;51.434;6.792;2022-07-18T17:53:36;6.55;;;1.88;;
12550;SDS011;6341;51.434;6.792;2022-07-18T17:59:02;3.05;;;1.50;;
12550;SDS011;6341;51.434;6.792;2022-07-18T18:04:25;3.65;;;1.63;;
12550;SDS011;6341;51.434;6.792;2022-07-18T18:09:51;2.63;;;1.50;;
12550;SDS011;6341;51.434;6.792;2022-07-18T18:15:20;2.00;;;1.40;;
12550;SDS011;6341;51.434;6.792;2022-07-18T18:20:46;3.60;;;1.52;;
12550;SDS011;6341;51.434;6.792;2022-07-18T18:26:12;4.00;;;1.85;;
12550;SDS011;6341;51.434;6.792;2022-07-18T18:31:35;7.97;;;2.03;;
12550;SDS011;6341;51.434;6.792;2022-07-18T18:36:59;3.67;;;1.65;;
12550;SDS011;6341;51.434;6.792;2022-07-18T18:42:33;2.50;;;1.45;;
12550;SDS011;6341;51.434;6.792;2022-07-18T18:48:00;3.90;;;2.00;;
12550;SDS011;6341;51.434;6.792;2022-07-18T18:53:24;2.78;;;1.92;;
12550;SDS011;6341;51.434;6.792;2022-07-18T18:58:53;3.47;;;1.63;;
12550;SDS011;6341;51.434;6.792;2022-07-18T19:04:17;4.78;;;2.20;;
12550;SDS011;6341;51.434;6.792;2022-07-18T19:22:21;3.00;;;2.03;;
12550;SDS011;6341;51.434;6.792;2022-07-18T19:28:02;6.22;;;2.13;;
12550;SDS011;6341;51.434;6.792;2022-07-18T19:33:34;4.10;;;2.38;;
12550;SDS011;6341;51.434;6.792;2022-07-18T19:39:15;3.78;;;2.13;;
12550;SDS011;6341;51.434;6.792;2022-07-18T19:44:47;4.80;;;3.05;;
12550;SDS011;6341;51.434;6.792;2022-07-18T19:56:12;3.85;;;2.40;;
12550;SDS011;6341;51.434;6.792;2022-07-18T20:02:01;7.70;;;3.25;;
12550;SDS011;6341;51.434;6.792;2022-07-18T20:07:36;3.85;;;2.30;;
12550;SDS011;6341;51.434;6.792;2022-07-18T20:13:13;4.53;;;2.55;;
12550;SDS011;6341;51.434;6.792;2022-07-18T20:19:03;6.88;;;3.05;;
12550;SDS011;6341;51.434;6.792;2022-07-18T20:26:24;4.40;;;2.35;;
12550;SDS011;6341;51.434;6.792;2022-07-18T20:38:33;7.85;;;3.25;;
12550;SDS011;6341;51.434;6.792;2022-07-18T20:45:14;7.40;;;3.28;;
12550;SDS011;6341;51.434;6.792;2022-07-18T20:51:32;5.93;;;3.13;;
12550;SDS011;6341;51.434;6.792;2022-07-18T20:57:32;10.00;;;3.25;;
12550;SDS011;6341;51.434;6.792;2022-07-18T21:23:49;5.55;;;2.95;;
12550;SDS011;6341;51.434;6.792;2022-07-18T21:29:14;4.95;;;3.40;;
12550;SDS011;6341;51.434;6.792;2022-07-18T21:34:38;7.60;;;3.58;;
12550;SDS011;6341;51.434;6.792;2022-07-18T21:40:05;5.55;;;3.08;;
12550;SDS011;6341;51.434;6.792;2022-07-18T21:47:06;6.75;;;3.35;;
12550;SDS011;6341;51.434;6.792;2022-07-18T21:52:33;4.93;;;3.25;;
12550;SDS011;6341;51.434;6.792;2022-07-18T22:12:54;3.40;;;2.88;;
12550;SDS011;6341;51.434;6.792;2022-07-18T22:18:20;6.40;;;3.22;;
12550;SDS011;6341;51.434;6.792;2022-07-18T22:23:46;7.22;;;3.13;;
12550;SDS011;6341;51.434;6.792;2022-07-18T22:29:12;7.55;;;3.80;;
12550;SDS011;6341;51.434;6.792;2022-07-18T22:34:35;4.63;;;3.40;;
12550;SDS011;6341;51.434;6.792;2022-07-18T22:39:59;5.03;;;3.33;;
12550;SDS011;6341;51.434;6.792;2022-07-18T22:45:24;5.18;;;3.20;;
12550;SDS011;6341;51.434;6.792;2022-07-18T22:50:50;5.20;;;3.38;;
12550;SDS011;6341;51.434;6.792;2022-07-18T22:56:14;6.03;;;2.88;;
12550;SDS011;6341;51.434;6.792;2022-07-18T23:01:39;5.75;;;2.83;;
12550;SDS011;6341;51.434;6.792;2022-07-18T23:07:03;7.88;;;3.22;;
12550;SDS011;6341;51.434;6.792;2022-07-18T23:12:27;8.60;;;3.60;;
12550;SDS011;6341;51.434;6.792;2022-07-18T23:17:53;5.73;;;3.10;;
12550;SDS011;6341;51.434;6.792;2022-07-18T23:23:17;4.60;;;3.07;;
12550;SDS011;6341;51.434;6.792;2022-07-18T23:28:42;4.47;;;3.07;;
12550;SDS011;6341;51.434;6.792;2022-07-18T23:34:07;4.37;;;3.00;;
12550;SDS011;6341;51.434;6.792;2022-07-18T23:39:30;5.57;;;3.43;;
12550;SDS011;6341;51.434;6.792;2022-07-18T23:44:53;8.07;;;3.30;;
12550;SDS011;6341;51.434;6.792;2022-07-18T23:50:18;4.47;;;3.10;;
12550;SDS011;6341;51.434;6.792;2022-07-18T23:55:42;6.03;;;3.50;;
